createdAt,value
2019-01-28T00:00:55.868Z,85.30
2019-01-28T00:03:27.096Z,85.70
2019-01-28T00:05:56.728Z,85.70
2019-01-28T00:08:26.487Z,85.60
2019-01-28T00:10:56.075Z,85.30
2019-01-28T00:13:25.666Z,85.10
2019-01-28T00:15:55.440Z,85.40
2019-01-28T00:18:25.008Z,85.90
2019-01-28T00:20:54.642Z,85.90
2019-01-28T00:23:24.265Z,85.80
2019-01-28T00:25:53.846Z,85.90
2019-01-28T00:28:23.463Z,85.90
2019-01-28T00:30:53.100Z,85.90
2019-01-28T00:33:22.683Z,85.90
2019-01-28T00:35:52.283Z,85.90
2019-01-28T00:38:21.872Z,85.80
2019-01-28T00:40:51.557Z,86.00
2019-01-28T00:43:21.222Z,86.00
2019-01-28T00:45:50.845Z,86.00
2019-01-28T00:48:20.449Z,86.00
2019-01-28T00:50:50.203Z,86.00
2019-01-28T00:53:19.871Z,86.00
2019-01-28T00:55:49.543Z,86.50
2019-01-28T00:58:19.162Z,86.60
2019-01-28T01:00:48.927Z,86.30
2019-01-28T01:03:18.594Z,86.00
2019-01-28T01:05:48.240Z,86.30
2019-01-28T01:08:17.910Z,86.00
2019-01-28T01:10:47.520Z,86.00
2019-01-28T01:13:17.122Z,86.40
2019-01-28T01:15:46.706Z,86.00
2019-01-28T01:18:16.525Z,86.90
2019-01-28T01:20:46.206Z,86.00
2019-01-28T01:23:15.821Z,86.00
2019-01-28T01:25:45.420Z,86.00
2019-01-28T01:28:15.019Z,86.60
2019-01-28T01:30:44.629Z,87.00
2019-01-28T01:33:14.333Z,87.50
2019-01-28T01:35:44.014Z,87.50
2019-01-28T01:38:13.620Z,87.50
2019-01-28T01:40:43.272Z,87.50
2019-01-28T01:43:12.974Z,87.50
2019-01-28T01:45:42.566Z,87.50
2019-01-28T01:48:12.310Z,87.50
2019-01-28T01:50:41.930Z,87.40
2019-01-28T01:53:11.586Z,87.50
2019-01-28T01:55:41.183Z,87.30
2019-01-28T01:58:10.833Z,87.20
2019-01-28T02:00:40.446Z,87.00
2019-01-28T02:03:10.051Z,87.20
2019-01-28T02:05:39.664Z,86.90
2019-01-28T02:08:09.303Z,86.80
2019-01-28T02:10:38.894Z,86.50
2019-01-28T02:13:08.572Z,86.80
2019-01-28T02:15:38.180Z,86.10
2019-01-28T02:18:07.840Z,86.30
2019-01-28T02:20:37.456Z,86.10
2019-01-28T02:23:07.054Z,86.50
2019-01-28T02:25:36.733Z,86.30
2019-01-28T02:28:06.329Z,86.10
2019-01-28T02:30:35.938Z,86.10
2019-01-28T02:33:05.547Z,86.10
2019-01-28T02:35:35.184Z,86.10
2019-01-28T02:38:04.841Z,86.50
2019-01-28T02:40:34.490Z,86.10
2019-01-28T02:43:04.171Z,86.10
2019-01-28T02:45:33.760Z,86.50
2019-01-28T02:48:03.415Z,86.10
2019-01-28T02:50:33.123Z,86.10
2019-01-28T02:53:02.750Z,86.10
2019-01-28T02:55:32.340Z,86.70
2019-01-28T02:58:02.023Z,86.70
2019-01-28T03:00:31.636Z,86.80
2019-01-28T03:03:01.268Z,86.50
2019-01-28T03:05:31.928Z,86.80
2019-01-28T03:08:01.544Z,86.50
2019-01-28T03:10:31.232Z,86.40
2019-01-28T03:13:00.884Z,86.50
2019-01-28T03:15:30.582Z,86.40
2019-01-28T03:18:00.200Z,86.20
2019-01-28T03:20:29.814Z,86.40
2019-01-28T03:22:59.547Z,86.20
2019-01-28T03:25:29.171Z,86.20
2019-01-28T03:27:58.830Z,86.20
2019-01-28T03:30:28.459Z,86.20
2019-01-28T03:32:58.062Z,86.20
2019-01-28T03:35:27.754Z,86.20
2019-01-28T03:37:57.422Z,86.20
2019-01-28T03:40:27.084Z,86.20
2019-01-28T03:42:56.780Z,86.20
2019-01-28T03:45:26.489Z,86.20
2019-01-28T03:47:56.078Z,86.20
2019-01-28T03:50:25.695Z,86.20
2019-01-28T03:52:55.550Z,86.20
2019-01-28T03:55:25.248Z,86.20
2019-01-28T03:57:55.939Z,86.20
2019-01-28T04:00:26.889Z,86.20
2019-01-28T04:02:56.493Z,86.20
2019-01-28T04:05:26.623Z,87.00
2019-01-28T04:07:57.552Z,86.20
2019-01-28T04:10:27.162Z,86.30
2019-01-28T04:12:56.783Z,86.30
2019-01-28T04:15:26.898Z,86.60
2019-01-28T04:17:56.635Z,86.20
2019-01-28T04:20:26.983Z,86.60
2019-01-28T04:22:56.562Z,86.90
2019-01-28T04:25:26.289Z,86.50
2019-01-28T04:27:55.820Z,86.50
2019-01-28T04:30:28.988Z,86.60
2019-01-28T04:32:58.626Z,86.70
2019-01-28T04:35:28.388Z,86.30
2019-01-28T04:37:58.100Z,86.30
2019-01-28T04:40:27.716Z,86.20
2019-01-28T04:42:57.337Z,86.30
2019-01-28T04:45:26.929Z,87.00
2019-01-28T04:47:56.528Z,86.50
2019-01-28T04:50:26.137Z,86.80
2019-01-28T04:52:55.732Z,86.70
2019-01-28T04:55:25.479Z,86.60
2019-01-28T04:57:55.146Z,86.80
2019-01-28T05:00:26.014Z,86.90
2019-01-28T05:02:55.773Z,86.70
2019-01-28T05:05:25.512Z,87.10
2019-01-28T05:07:55.217Z,87.40
2019-01-28T05:10:26.496Z,87.00
2019-01-28T05:12:56.276Z,87.10
2019-01-28T05:15:25.944Z,86.90
2019-01-28T05:17:55.705Z,86.80
2019-01-28T05:20:25.293Z,87.60
2019-01-28T05:22:54.983Z,87.60
2019-01-28T05:25:24.651Z,87.50
2019-01-28T05:27:54.262Z,87.50
2019-01-28T05:30:24.832Z,87.10
2019-01-28T05:32:54.515Z,87.70
2019-01-28T05:35:24.251Z,87.70
2019-01-28T05:37:53.848Z,88.00
2019-01-28T05:40:24.850Z,88.60
2019-01-28T05:42:54.532Z,88.20
2019-01-28T05:45:24.455Z,88.50
2019-01-28T05:47:54.094Z,88.30
2019-01-28T05:50:23.662Z,88.30
2019-01-28T05:52:53.347Z,88.40
2019-01-28T05:55:23.157Z,88.30
2019-01-28T05:57:52.890Z,89.10
2019-01-28T06:00:39.050Z,88.70
2019-01-28T06:03:08.717Z,88.60
2019-01-28T06:05:38.385Z,88.70
2019-01-28T06:08:07.987Z,88.90
2019-01-28T06:10:37.662Z,89.60
2019-01-28T06:13:07.387Z,89.60
2019-01-28T06:15:37.210Z,89.30
2019-01-28T06:18:06.885Z,88.90
2019-01-28T06:20:36.572Z,88.90
2019-01-28T06:23:06.940Z,89.00
2019-01-28T06:25:36.532Z,88.90
2019-01-28T06:28:06.216Z,89.20
2019-01-28T06:30:35.897Z,89.10
2019-01-28T06:33:05.495Z,89.60
2019-01-28T06:35:35.235Z,89.10
2019-01-28T06:38:04.957Z,89.10
2019-01-28T06:40:35.463Z,89.40
2019-01-28T06:43:05.107Z,88.90
2019-01-28T06:45:34.714Z,89.20
2019-01-28T06:48:04.626Z,89.30
2019-01-28T06:50:36.055Z,89.30
2019-01-28T06:53:05.701Z,89.10
2019-01-28T06:55:35.347Z,89.60
2019-01-28T06:58:04.982Z,89.30
2019-01-28T07:00:36.350Z,89.30
2019-01-28T07:03:06.263Z,89.10
2019-01-28T07:05:35.941Z,89.00
2019-01-28T07:08:06.559Z,88.90
2019-01-28T07:10:36.200Z,89.20
2019-01-28T07:13:06.885Z,89.30
2019-01-28T07:15:36.472Z,89.20
2019-01-28T07:18:06.359Z,89.10
2019-01-28T07:20:36.131Z,89.20
2019-01-28T07:23:05.845Z,88.90
2019-01-28T07:25:35.507Z,89.00
2019-01-28T07:28:05.388Z,88.90
2019-01-28T07:30:36.214Z,88.70
2019-01-28T07:33:05.907Z,88.70
2019-01-28T07:35:35.655Z,89.10
2019-01-28T07:38:05.558Z,89.00
2019-01-28T07:40:35.241Z,89.20
2019-01-28T07:43:04.929Z,89.10
2019-01-28T07:45:44.567Z,89.10
2019-01-28T07:48:07.803Z,89.10
2019-01-28T07:50:37.428Z,89.20
2019-01-28T07:53:07.118Z,89.10
2019-01-28T07:55:36.723Z,89.20
2019-01-28T07:58:06.489Z,89.10
2019-01-28T08:00:36.173Z,89.00
2019-01-28T08:03:05.950Z,89.40
2019-01-28T08:05:35.736Z,89.10
2019-01-28T08:08:05.444Z,89.30
2019-01-28T08:10:35.152Z,89.20
2019-01-28T08:13:05.348Z,89.30
2019-01-28T08:15:35.087Z,89.60
2019-01-28T08:18:10.601Z,89.40
2019-01-28T08:20:36.892Z,89.30
2019-01-28T08:23:06.595Z,89.10
2019-01-28T08:25:36.379Z,89.10
2019-01-28T08:28:05.976Z,89.40
2019-01-28T08:30:37.053Z,89.30
2019-01-28T08:33:06.750Z,89.30
2019-01-28T08:35:36.745Z,89.30
2019-01-28T08:38:07.897Z,89.30
2019-01-28T08:40:37.535Z,89.30
2019-01-28T08:43:07.207Z,89.20
2019-01-28T08:45:36.883Z,89.40
2019-01-28T08:48:06.538Z,89.40
2019-01-28T08:50:36.240Z,89.50
2019-01-28T08:53:05.924Z,89.00
2019-01-28T08:55:35.744Z,89.30
2019-01-28T08:58:05.580Z,89.20
2019-01-28T09:00:39.835Z,89.20
2019-01-28T09:03:10.705Z,88.90
2019-01-28T09:05:40.435Z,88.90
2019-01-28T09:08:11.276Z,88.80
2019-01-28T09:10:40.939Z,88.70
2019-01-28T09:13:10.584Z,88.60
2019-01-28T09:15:40.183Z,88.20
2019-01-28T09:18:11.316Z,88.20
2019-01-28T09:20:40.901Z,88.10
2019-01-28T09:23:10.577Z,88.10
2019-01-28T09:25:40.209Z,88.10
2019-01-28T09:28:09.946Z,87.60
2019-01-28T09:30:39.599Z,87.80
2019-01-28T09:33:09.422Z,87.90
2019-01-28T09:35:39.173Z,87.90
2019-01-28T09:38:08.916Z,87.80
2019-01-28T09:40:38.529Z,87.60
2019-01-28T09:43:08.306Z,87.60
2019-01-28T09:45:50.083Z,87.70
2019-01-28T09:48:19.726Z,87.70
2019-01-28T09:50:49.399Z,87.70
2019-01-28T09:53:19.072Z,87.70
2019-01-28T09:55:48.792Z,87.70
2019-01-28T09:58:18.610Z,87.80
2019-01-28T10:00:49.138Z,87.80
2019-01-28T10:03:18.821Z,87.80
2019-01-28T10:05:48.489Z,87.90
2019-01-28T10:08:18.138Z,87.80
2019-01-28T10:10:47.964Z,87.80
2019-01-28T10:13:17.682Z,87.90
2019-01-28T10:15:47.348Z,87.90
2019-01-28T10:18:17.150Z,87.80
2019-01-28T10:20:47.469Z,87.80
2019-01-28T10:23:17.227Z,87.50
2019-01-28T10:25:47.118Z,87.30
2019-01-28T10:28:16.956Z,87.30
2019-01-28T10:30:48.051Z,87.30
2019-01-28T10:33:17.645Z,87.20
2019-01-28T10:35:47.552Z,87.20
2019-01-28T10:38:18.176Z,87.20
2019-01-28T10:40:48.636Z,87.30
2019-01-28T10:43:18.244Z,87.30
2019-01-28T10:45:47.956Z,87.40
2019-01-28T10:48:17.860Z,87.40
2019-01-28T10:50:49.055Z,87.30
2019-01-28T10:53:18.714Z,87.20
2019-01-28T10:55:48.634Z,87.20
2019-01-28T10:58:18.400Z,87.40
2019-01-28T11:00:48.681Z,87.40
2019-01-28T11:03:18.950Z,87.60
2019-01-28T11:05:48.609Z,87.60
2019-01-28T11:08:18.251Z,87.80
2019-01-28T11:10:47.905Z,87.70
2019-01-28T11:13:17.746Z,87.70
2019-01-28T11:15:47.468Z,87.60
2019-01-28T11:18:22.247Z,87.70
2019-01-28T11:20:51.843Z,87.80
2019-01-28T11:23:21.614Z,88.00
2019-01-28T11:25:51.231Z,88.00
2019-01-28T11:28:20.814Z,88.00
2019-01-28T11:30:54.709Z,87.90
2019-01-28T11:33:25.606Z,88.00
2019-01-28T11:35:55.668Z,87.90
2019-01-28T11:38:25.641Z,87.90
2019-01-28T11:40:55.229Z,87.90
2019-01-28T11:43:24.876Z,87.70
2019-01-28T11:45:57.171Z,87.70
2019-01-28T11:48:27.014Z,87.70
2019-01-28T11:50:56.567Z,87.80
2019-01-28T11:53:26.220Z,87.70
2019-01-28T11:55:55.886Z,87.70
2019-01-28T11:58:25.588Z,87.90
2019-01-28T12:00:59.366Z,88.00
2019-01-28T12:03:29.309Z,87.80
2019-01-28T12:05:58.909Z,87.90
2019-01-28T12:08:28.569Z,87.60
2019-01-28T12:10:58.217Z,87.60
2019-01-28T12:13:27.837Z,87.40
2019-01-28T12:15:57.426Z,87.30
2019-01-28T12:18:27.080Z,87.20
2019-01-28T12:20:56.684Z,88.00
2019-01-28T12:23:26.421Z,87.20
2019-01-28T12:25:56.078Z,87.30
2019-01-28T12:28:25.749Z,87.20
2019-01-28T12:30:55.361Z,87.20
2019-01-28T12:33:25.009Z,87.40
2019-01-28T12:35:54.803Z,87.30
2019-01-28T12:38:24.454Z,87.30
2019-01-28T12:40:54.074Z,87.30
2019-01-28T12:43:23.698Z,87.40
2019-01-28T12:45:53.431Z,87.40
2019-01-28T12:48:25.126Z,87.50
2019-01-28T12:50:54.768Z,87.40
2019-01-28T12:53:24.455Z,87.40
2019-01-28T12:55:54.146Z,87.30
2019-01-28T12:58:23.823Z,87.30
2019-01-28T13:00:55.472Z,87.20
2019-01-28T13:03:25.154Z,87.20
2019-01-28T13:05:54.906Z,87.30
2019-01-28T13:08:24.658Z,87.20
2019-01-28T13:10:55.357Z,87.30
2019-01-28T13:13:25.088Z,87.20
2019-01-28T13:15:54.744Z,87.40
2019-01-28T13:18:26.922Z,87.60
2019-01-28T13:20:56.579Z,87.80
2019-01-28T13:23:26.205Z,88.20
2019-01-28T13:25:55.826Z,88.40
2019-01-28T13:28:25.538Z,88.50
2019-01-28T13:30:55.277Z,88.50
2019-01-28T13:33:25.056Z,88.50
2019-01-28T13:35:54.795Z,88.50
2019-01-28T13:38:24.528Z,88.50
2019-01-28T13:40:54.204Z,88.50
2019-01-28T13:43:23.884Z,88.60
2019-01-28T13:45:53.563Z,88.60
2019-01-28T13:48:23.276Z,88.50
2019-01-28T13:50:52.896Z,88.40
2019-01-28T13:53:22.657Z,88.20
2019-01-28T13:55:52.406Z,87.90
2019-01-28T13:58:22.022Z,88.00
2019-01-28T14:00:51.691Z,88.20
2019-01-28T14:03:21.442Z,88.10
2019-01-28T14:05:51.102Z,88.20
2019-01-28T14:08:20.772Z,88.10
2019-01-28T14:10:50.395Z,88.20
2019-01-28T14:13:20.107Z,88.50
2019-01-28T14:15:49.788Z,88.30
2019-01-28T14:18:19.450Z,88.40
2019-01-28T14:20:53.522Z,88.50
2019-01-28T14:23:20.654Z,88.60
2019-01-28T14:25:50.340Z,88.50
2019-01-28T14:28:19.935Z,88.50
2019-01-28T14:30:49.706Z,88.50
2019-01-28T14:33:19.364Z,88.50
2019-01-28T14:35:49.275Z,88.50
2019-01-28T14:38:19.082Z,88.50
2019-01-28T14:40:48.666Z,88.50
2019-01-28T14:43:18.349Z,88.50
2019-01-28T14:45:48.046Z,88.50
2019-01-28T14:48:17.744Z,88.50
2019-01-28T14:50:47.888Z,88.40
2019-01-28T14:53:17.550Z,88.40
2019-01-28T14:55:47.171Z,88.40
2019-01-28T14:58:16.928Z,88.40
2019-01-28T15:00:46.568Z,88.40
2019-01-28T15:03:16.514Z,88.40
2019-01-28T15:05:46.240Z,88.40
2019-01-28T15:08:16.109Z,88.40
2019-01-28T15:10:45.681Z,88.30
2019-01-28T15:13:15.484Z,88.70
2019-01-28T15:15:45.136Z,88.30
2019-01-28T15:18:15.253Z,88.30
2019-01-28T15:20:45.043Z,88.40
2019-01-28T15:23:14.659Z,88.30
2019-01-28T15:25:44.342Z,88.40
2019-01-28T15:28:13.941Z,88.40
2019-01-28T15:30:43.673Z,88.50
2019-01-28T15:33:13.593Z,88.70
2019-01-28T15:35:43.187Z,88.70
2019-01-28T15:38:13.013Z,88.90
2019-01-28T15:40:42.720Z,88.90
2019-01-28T15:43:12.362Z,88.80
2019-01-28T15:45:43.029Z,88.90
2019-01-28T15:48:12.857Z,88.90
2019-01-28T15:50:42.494Z,89.10
2019-01-28T15:53:12.258Z,89.20
2019-01-28T15:55:42.440Z,89.40
2019-01-28T15:58:12.269Z,89.30
2019-01-28T16:00:44.038Z,89.30
2019-01-28T16:03:14.699Z,89.40
2019-01-28T16:05:44.404Z,89.30
2019-01-28T16:08:14.015Z,89.40
2019-01-28T16:10:43.775Z,89.40
2019-01-28T16:13:13.494Z,89.60
2019-01-28T16:15:46.121Z,89.60
2019-01-28T16:18:16.867Z,89.50
2019-01-28T16:20:47.682Z,89.60
2019-01-28T16:23:17.344Z,89.60
2019-01-28T16:25:47.073Z,89.70
2019-01-28T16:28:16.701Z,89.80
2019-01-28T16:30:46.440Z,89.80
2019-01-28T16:33:16.102Z,89.90
2019-01-28T16:35:45.749Z,89.90
2019-01-28T16:38:15.440Z,89.90
2019-01-28T16:40:45.039Z,90.00
2019-01-28T16:43:14.759Z,90.00
2019-01-28T16:45:44.447Z,89.90
2019-01-28T16:48:14.076Z,90.00
2019-01-28T16:50:43.731Z,90.00
2019-01-28T16:53:13.319Z,90.00
2019-01-28T16:55:43.763Z,90.00
2019-01-28T16:58:13.336Z,90.20
2019-01-28T17:00:44.430Z,90.20
2019-01-28T17:03:14.181Z,90.10
2019-01-28T17:05:43.823Z,90.20
2019-01-28T17:08:13.508Z,90.30
2019-01-28T17:10:43.248Z,90.30
2019-01-28T17:13:12.858Z,90.30
2019-01-28T17:15:42.594Z,90.40
2019-01-28T17:18:12.212Z,90.50
2019-01-28T17:20:41.868Z,90.50
2019-01-28T17:23:11.541Z,90.70
2019-01-28T17:25:46.023Z,90.50
2019-01-28T17:28:15.778Z,90.50
2019-01-28T17:30:47.407Z,90.60
2019-01-28T17:33:17.044Z,90.60
2019-01-28T17:35:46.702Z,90.80
2019-01-28T17:38:16.316Z,90.90
2019-01-28T17:40:46.030Z,90.90
2019-01-28T17:43:16.715Z,90.90
2019-01-28T17:45:46.511Z,90.80
2019-01-28T17:48:16.315Z,91.10
2019-01-28T17:50:46.009Z,91.00
2019-01-28T17:53:15.673Z,91.00
2019-01-28T17:55:45.314Z,91.00
2019-01-28T17:58:14.979Z,90.90
2019-01-28T18:00:49.169Z,90.90
2019-01-28T18:03:19.012Z,91.10
2019-01-28T18:05:48.700Z,91.10
2019-01-28T18:08:18.391Z,91.40
2019-01-28T18:10:48.141Z,91.40
2019-01-28T18:13:17.820Z,91.30
2019-01-28T18:15:47.509Z,91.50
2019-01-28T18:18:17.121Z,91.40
2019-01-28T18:20:51.519Z,91.40
2019-01-28T18:23:19.642Z,91.30
2019-01-28T18:25:49.351Z,91.10
2019-01-28T18:28:19.022Z,91.00
2019-01-28T18:30:51.758Z,91.00
2019-01-28T18:33:21.432Z,91.20
2019-01-28T18:35:51.107Z,91.30
2019-01-28T18:38:20.788Z,91.60
2019-01-28T18:40:50.482Z,91.50
2019-01-28T18:43:20.214Z,91.60
2019-01-28T18:45:50.666Z,91.80
2019-01-28T18:48:20.283Z,92.00
2019-01-28T18:50:51.129Z,92.00
2019-01-28T18:53:20.909Z,92.10
2019-01-28T18:55:50.521Z,92.30
2019-01-28T18:58:20.281Z,92.30
2019-01-28T19:00:49.963Z,92.40
2019-01-28T19:03:20.163Z,92.70
2019-01-28T19:05:55.417Z,92.60
2019-01-28T19:08:43.167Z,92.70
2019-01-28T19:11:20.646Z,92.70
2019-01-28T19:13:54.755Z,92.90
2019-01-28T19:16:26.024Z,92.90
2019-01-28T19:19:13.615Z,92.90
2019-01-28T19:21:44.895Z,93.00
2019-01-28T19:24:14.498Z,92.90
2019-01-28T19:26:44.225Z,92.90
2019-01-28T19:29:13.951Z,92.90
2019-01-28T19:31:43.532Z,92.90
2019-01-28T19:34:13.149Z,92.90
2019-01-28T19:36:42.761Z,92.90
2019-01-28T19:39:13.526Z,93.00
2019-01-28T19:41:43.288Z,93.10
2019-01-28T19:44:12.957Z,93.60
2019-01-28T19:46:42.532Z,93.30
2019-01-28T19:49:12.207Z,93.50
2019-01-28T19:51:41.915Z,93.40
2019-01-28T19:54:11.589Z,93.50
2019-01-28T19:56:41.151Z,93.60
2019-01-28T19:59:11.834Z,93.40
2019-01-28T20:01:41.502Z,93.40
2019-01-28T20:04:13.063Z,93.30
2019-01-28T20:07:08.259Z,93.10
2019-01-28T20:09:37.990Z,92.90
2019-01-28T20:12:07.649Z,92.90
2019-01-28T20:14:37.248Z,92.90
2019-01-28T20:17:06.922Z,92.50
2019-01-28T20:19:36.531Z,92.40
2019-01-28T20:22:06.120Z,92.30
2019-01-28T20:24:35.833Z,92.40
2019-01-28T20:27:05.607Z,92.50
2019-01-28T20:29:35.208Z,92.80
2019-01-28T20:32:05.091Z,92.80
2019-01-28T20:34:34.682Z,92.90
2019-01-28T20:37:04.348Z,93.00
2019-01-28T20:39:33.940Z,92.80
2019-01-28T20:42:03.522Z,92.80
2019-01-28T20:44:33.115Z,93.00
2019-01-28T20:47:02.733Z,92.80
2019-01-28T20:49:32.352Z,93.10
2019-01-28T20:52:01.890Z,92.80
2019-01-28T20:54:31.460Z,92.80
2019-01-28T20:57:01.049Z,92.80
2019-01-28T20:59:30.800Z,92.80
2019-01-28T21:02:00.450Z,92.80
2019-01-28T21:04:30.030Z,92.80
2019-01-28T21:06:59.611Z,92.80
2019-01-28T21:09:29.296Z,92.80
2019-01-28T21:11:58.948Z,93.10
2019-01-28T21:14:28.562Z,93.40
2019-01-28T21:16:58.148Z,93.30
2019-01-28T21:19:27.720Z,93.30
2019-01-28T21:21:57.309Z,93.20
2019-01-28T21:24:26.849Z,93.10
2019-01-28T21:26:56.413Z,93.20
2019-01-28T21:29:26.047Z,93.40
2019-01-28T21:31:55.764Z,93.30
2019-01-28T21:34:25.517Z,93.30
2019-01-28T21:36:56.857Z,93.20
2019-01-28T21:39:26.397Z,93.30
2019-01-28T21:41:55.844Z,93.40
2019-01-28T21:44:25.424Z,93.40
2019-01-28T21:46:56.178Z,93.40
2019-01-28T21:49:25.830Z,93.40
2019-01-28T21:51:55.484Z,93.30
2019-01-28T21:54:25.538Z,93.30
2019-01-28T21:56:55.187Z,93.20
2019-01-28T21:59:24.814Z,93.10
2019-01-28T22:01:54.409Z,93.00
2019-01-28T22:04:24.038Z,93.10
2019-01-28T22:06:53.788Z,93.00
2019-01-28T22:09:23.451Z,93.00
2019-01-28T22:11:53.067Z,93.00
2019-01-28T22:14:22.688Z,92.90
2019-01-28T22:16:52.298Z,92.90
2019-01-28T22:19:21.878Z,92.90
2019-01-28T22:21:59.007Z,92.90
2019-01-28T22:24:22.790Z,92.90
2019-01-28T22:26:52.419Z,92.90
2019-01-28T22:29:22.010Z,92.90
2019-01-28T22:31:51.596Z,92.90
2019-01-28T22:34:21.328Z,92.90
2019-01-28T22:36:50.996Z,92.90
2019-01-28T22:39:20.643Z,92.90
2019-01-28T22:41:50.308Z,92.90
2019-01-28T22:44:19.899Z,92.90
2019-01-28T22:46:49.561Z,92.90
2019-01-28T22:49:19.228Z,92.90
2019-01-28T22:51:48.864Z,92.90
2019-01-28T22:54:18.482Z,92.70
2019-01-28T22:56:48.084Z,92.60
2019-01-28T22:59:17.742Z,92.50
2019-01-28T23:01:47.405Z,92.30
2019-01-28T23:04:17.070Z,92.20
2019-01-28T23:06:46.720Z,92.10
2019-01-28T23:09:16.473Z,92.10
2019-01-28T23:11:46.162Z,92.00
2019-01-28T23:14:15.797Z,91.90
2019-01-28T23:16:45.497Z,91.80
2019-01-28T23:19:15.220Z,92.10
2019-01-28T23:21:44.939Z,91.80
2019-01-28T23:24:14.518Z,91.70
2019-01-28T23:26:44.122Z,91.50
2019-01-28T23:29:13.791Z,91.50
2019-01-28T23:31:43.442Z,91.60
2019-01-28T23:34:13.022Z,91.50
2019-01-28T23:36:42.606Z,91.60
2019-01-28T23:39:12.278Z,91.60
2019-01-28T23:41:41.968Z,91.60
2019-01-28T23:44:11.693Z,91.70
2019-01-28T23:46:41.298Z,91.60
2019-01-28T23:49:11.053Z,91.70
2019-01-28T23:51:40.700Z,91.70
2019-01-28T23:54:10.313Z,91.70
2019-01-28T23:56:39.990Z,91.60
2019-01-28T23:59:09.581Z,91.70
